createdAt,value
2022-09-05T05:39:11.719Z,99062.16
2022-09-05T05:59:14.197Z,99077.97
2022-09-05T06:19:17.842Z,99080.56
2022-09-05T06:39:20.842Z,99081.00
2022-09-05T06:59:23.301Z,99099.81
2022-09-05T07:19:28.501Z,99095.78
2022-09-05T07:39:31.041Z,99106.63
2022-09-05T07:59:33.494Z,99117.22
2022-09-05T08:19:36.418Z,99119.22
2022-09-05T08:39:39.203Z,99115.28
2022-09-05T09:00:04.309Z,99095.09
2022-09-05T09:20:07.291Z,99093.91
2022-09-05T09:40:10.512Z,99075.38
2022-09-05T10:00:13.141Z,99061.41
2022-09-05T10:20:16.246Z,99056.53
2022-09-05T10:40:18.893Z,99051.91
2022-09-05T11:02:23.157Z,99031.41
2022-09-05T11:20:44.397Z,99032.00
2022-09-05T11:41:02.738Z,99029.00
2022-09-05T12:01:41.932Z,99019.66
2022-09-05T12:21:32.828Z,99006.84
2022-09-05T12:42:14.519Z,98992.53
2022-09-05T13:03:11.485Z,98979.97
2022-09-05T13:22:31.360Z,98980.22
2022-09-05T13:42:33.834Z,98972.31
2022-09-05T14:03:29.945Z,98964.25
2022-09-05T14:22:59.679Z,98954.03
2022-09-05T14:43:02.916Z,98940.94
2022-09-05T15:03:06.421Z,98929.44
2022-09-05T15:23:16.264Z,98926.28
2022-09-05T15:43:21.124Z,98910.53
2022-09-05T16:06:44.120Z,98907.34
2022-09-05T16:23:47.388Z,98901.69
2022-09-05T16:43:50.144Z,98887.78
2022-09-05T17:03:53.176Z,98895.28
2022-09-05T17:29:16.321Z,98884.84
2022-09-05T17:44:20.744Z,98880.97
2022-09-05T18:04:23.171Z,98903.09
2022-09-05T18:24:32.668Z,98919.69
2022-09-05T18:44:36.243Z,98923.56
2022-09-05T19:24:55.370Z,98928.84
2022-09-05T19:47:38.171Z,98915.16
2022-09-05T20:05:31.132Z,98897.28
2022-09-05T20:25:37.899Z,98876.25
2022-09-05T20:45:40.817Z,98876.66
2022-09-05T21:05:46.842Z,98887.03
2022-09-05T21:25:54.684Z,98876.06
2022-09-05T21:47:49.014Z,98884.16
2022-09-05T22:06:21.976Z,98889.38
2022-09-05T22:26:26.628Z,98886.16
2022-09-05T22:46:29.297Z,98880.84
2022-09-05T23:06:42.303Z,98864.34
2022-09-05T23:26:48.851Z,98847.78
2022-09-05T23:46:51.400Z,98850.28
